createdAt,value
2022-12-01T00:02:10.240Z,1.35
2022-12-01T00:04:41.456Z,1.60
2022-12-01T00:07:12.371Z,1.48
2022-12-01T00:10:01.202Z,1.10
2022-12-01T00:12:33.225Z,1.45
2022-12-01T00:15:04.350Z,1.88
2022-12-01T00:17:35.261Z,1.33
2022-12-01T00:20:07.722Z,1.50
2022-12-01T00:22:38.676Z,1.20
2022-12-01T00:25:09.838Z,1.40
2022-12-01T00:27:41.073Z,1.42
2022-12-01T00:30:14.391Z,1.40
2022-12-01T00:32:46.029Z,1.30
2022-12-01T00:35:18.356Z,1.40
2022-12-01T00:37:49.271Z,1.30
2022-12-01T00:42:52.626Z,1.20
2022-12-01T00:45:23.341Z,1.10
2022-12-01T00:47:54.305Z,1.25
2022-12-01T00:50:25.011Z,1.27
2022-12-01T00:52:55.964Z,1.02
2022-12-01T00:55:26.934Z,1.00
2022-12-01T00:57:57.868Z,1.35
2022-12-01T01:00:28.840Z,1.20
2022-12-01T01:02:59.754Z,1.33
2022-12-01T01:05:31.009Z,1.30
2022-12-01T01:08:02.008Z,1.33
2022-12-01T01:10:33.048Z,1.13
2022-12-01T01:13:04.121Z,1.20
2022-12-01T01:15:35.451Z,1.55
2022-12-01T01:18:06.928Z,1.23
2022-12-01T01:20:37.888Z,1.20
2022-12-01T01:23:09.029Z,1.52
2022-12-01T01:25:39.968Z,1.38
2022-12-01T01:28:10.944Z,1.60
2022-12-01T01:33:13.565Z,2.10
2022-12-01T01:35:44.806Z,1.83
2022-12-01T01:38:15.851Z,2.08
2022-12-01T01:40:47.784Z,1.77
2022-12-01T01:43:20.949Z,2.20
2022-12-01T01:45:51.911Z,2.60
2022-12-01T01:48:22.927Z,2.53
2022-12-01T01:50:53.989Z,2.67
2022-12-01T01:53:25.148Z,2.85
2022-12-01T01:55:55.955Z,2.53
2022-12-01T01:58:26.678Z,2.00
2022-12-01T02:00:57.766Z,2.20
2022-12-01T02:03:30.673Z,2.17
2022-12-01T02:06:05.113Z,2.50
2022-12-01T02:08:37.854Z,2.10
2022-12-01T02:11:22.938Z,1.67
2022-12-01T02:14:28.210Z,1.90
2022-12-01T02:17:13.248Z,2.17
2022-12-01T02:20:06.758Z,2.15
2022-12-01T02:22:53.401Z,1.80
2022-12-01T02:25:47.722Z,2.00
2022-12-01T02:29:09.108Z,2.47
2022-12-01T02:31:55.478Z,2.08
2022-12-01T02:34:36.215Z,2.22
2022-12-01T02:37:17.829Z,2.05
2022-12-01T02:40:05.813Z,2.05
2022-12-01T02:43:01.234Z,1.85
2022-12-01T02:45:33.453Z,2.40
2022-12-01T02:48:14.229Z,2.33
2022-12-01T02:50:46.196Z,2.40
2022-12-01T02:55:55.933Z,2.43
2022-12-01T02:58:26.951Z,2.20
2022-12-01T03:01:12.140Z,2.45
2022-12-01T03:04:03.032Z,2.45
2022-12-01T03:07:01.371Z,3.15
2022-12-01T03:09:49.455Z,2.72
2022-12-01T03:12:31.559Z,2.40
2022-12-01T03:17:48.134Z,2.20
2022-12-01T03:20:27.028Z,2.47
2022-12-01T03:23:09.278Z,2.95
2022-12-01T03:25:42.394Z,2.47
2022-12-01T03:28:23.570Z,2.53
2022-12-01T03:31:00.124Z,2.33
2022-12-01T03:33:45.645Z,2.78
2022-12-01T03:36:29.306Z,2.42
2022-12-01T03:39:06.871Z,2.30
2022-12-01T03:41:41.704Z,2.60
2022-12-01T03:44:18.875Z,2.42
2022-12-01T03:47:07.500Z,2.67
2022-12-01T03:49:38.514Z,2.88
2022-12-01T03:52:21.965Z,2.30
2022-12-01T03:55:07.316Z,2.47
2022-12-01T03:57:53.947Z,2.30
2022-12-01T04:00:25.325Z,2.60
2022-12-01T04:03:00.841Z,2.60
2022-12-01T04:05:32.700Z,2.08
2022-12-01T04:10:34.637Z,2.00
2022-12-01T04:13:05.936Z,2.58
2022-12-01T04:15:36.851Z,2.05
2022-12-01T04:18:08.017Z,2.22
2022-12-01T04:20:39.010Z,2.10
2022-12-01T04:23:09.903Z,2.10
2022-12-01T04:25:40.798Z,2.50
2022-12-01T04:28:11.746Z,2.37
2022-12-01T04:30:42.875Z,2.70
2022-12-01T04:33:13.850Z,3.30
2022-12-01T04:35:45.238Z,2.45
2022-12-01T04:38:16.066Z,2.65
2022-12-01T04:40:46.996Z,2.45
2022-12-01T04:43:17.964Z,2.77
2022-12-01T04:45:48.805Z,2.33
2022-12-01T04:48:19.717Z,2.55
2022-12-01T04:50:51.795Z,2.65
2022-12-01T04:53:22.836Z,2.55
2022-12-01T04:55:53.777Z,2.63
2022-12-01T04:58:25.065Z,2.20
2022-12-01T05:00:56.071Z,1.90
2022-12-01T05:03:27.063Z,2.15
2022-12-01T05:06:13.275Z,2.28
2022-12-01T05:08:44.116Z,2.08
2022-12-01T05:11:17.356Z,2.17
2022-12-01T05:13:49.910Z,2.53
2022-12-01T05:16:29.884Z,2.63
2022-12-01T05:19:21.188Z,2.05
2022-12-01T05:21:53.065Z,1.80
2022-12-01T05:24:33.177Z,2.10
2022-12-01T05:27:04.497Z,2.15
2022-12-01T05:29:38.229Z,2.00
2022-12-01T05:32:09.514Z,1.92
2022-12-01T05:34:40.452Z,2.67
2022-12-01T05:37:12.027Z,2.35
2022-12-01T05:39:42.977Z,2.20
2022-12-01T05:42:13.992Z,2.35
2022-12-01T05:44:44.878Z,2.28
2022-12-01T05:47:16.129Z,2.13
2022-12-01T05:49:47.254Z,1.92
2022-12-01T05:54:49.346Z,2.22
2022-12-01T05:57:20.247Z,2.30
2022-12-01T05:59:51.359Z,2.33
2022-12-01T06:02:22.535Z,2.45
2022-12-01T06:04:53.448Z,2.40
2022-12-01T06:07:26.697Z,2.50
2022-12-01T06:09:57.483Z,2.22
2022-12-01T06:12:28.488Z,2.45
2022-12-01T06:14:59.724Z,2.00
2022-12-01T06:17:33.548Z,2.20
2022-12-01T06:20:06.859Z,2.05
2022-12-01T06:22:38.133Z,2.13
2022-12-01T06:25:09.356Z,2.28
2022-12-01T06:27:40.376Z,2.70
2022-12-01T06:30:11.928Z,2.17
2022-12-01T06:32:42.954Z,2.30
2022-12-01T06:35:14.200Z,2.50
2022-12-01T06:40:16.170Z,2.25
2022-12-01T06:42:46.961Z,2.38
2022-12-01T06:45:17.927Z,2.00
2022-12-01T06:47:56.238Z,2.28
2022-12-01T06:50:27.709Z,1.83
2022-12-01T06:52:59.406Z,2.60
2022-12-01T06:55:30.384Z,2.20
2022-12-01T06:58:04.946Z,1.98
2022-12-01T07:00:36.337Z,2.28
2022-12-01T07:03:07.357Z,2.20
2022-12-01T07:05:38.536Z,2.42
2022-12-01T07:08:09.605Z,2.47
2022-12-01T07:10:40.565Z,1.98
2022-12-01T07:13:11.512Z,2.17
2022-12-01T07:15:42.403Z,2.17
2022-12-01T07:18:13.376Z,2.17
2022-12-01T07:20:44.389Z,1.80
2022-12-01T07:23:15.344Z,1.98
2022-12-01T07:25:46.647Z,2.15
2022-12-01T07:28:17.663Z,2.45
2022-12-01T07:30:48.780Z,2.05
2022-12-01T07:33:19.692Z,1.90
2022-12-01T07:35:50.521Z,2.00
2022-12-01T07:38:22.522Z,2.42
2022-12-01T07:40:53.619Z,1.80
2022-12-01T07:43:24.391Z,2.17
2022-12-01T07:45:55.317Z,1.90
2022-12-01T07:48:26.438Z,1.92
2022-12-01T07:50:58.222Z,2.57
2022-12-01T07:56:02.094Z,1.90
2022-12-01T07:58:36.718Z,2.20
2022-12-01T08:01:13.810Z,2.45
2022-12-01T08:03:45.451Z,2.90
2022-12-01T08:06:16.428Z,2.50
2022-12-01T08:08:47.325Z,1.92
2022-12-01T08:11:20.988Z,1.92
2022-12-01T08:13:52.544Z,2.40
2022-12-01T08:16:24.918Z,1.85
2022-12-01T08:18:56.335Z,2.00
2022-12-01T08:21:27.653Z,2.22
2022-12-01T08:23:59.643Z,2.20
2022-12-01T08:26:31.703Z,2.60
2022-12-01T08:29:02.589Z,2.38
2022-12-01T08:31:39.311Z,2.08
2022-12-01T08:34:10.666Z,2.38
2022-12-01T08:36:41.642Z,2.10
2022-12-01T08:39:13.420Z,2.17
2022-12-01T08:41:44.558Z,2.05
2022-12-01T08:44:15.726Z,2.20
2022-12-01T08:46:46.824Z,2.28
2022-12-01T08:49:17.779Z,2.60
2022-12-01T08:51:49.059Z,1.90
2022-12-01T08:54:20.013Z,2.20
2022-12-01T08:56:51.017Z,2.28
2022-12-01T08:59:22.315Z,2.10
2022-12-01T09:01:56.257Z,2.10
2022-12-01T09:04:28.398Z,2.05
2022-12-01T09:06:59.939Z,2.15
2022-12-01T09:09:31.266Z,2.10
2022-12-01T09:12:02.208Z,2.33
2022-12-01T09:14:33.262Z,2.40
2022-12-01T09:17:03.976Z,2.13
2022-12-01T09:19:35.036Z,2.30
2022-12-01T09:22:05.955Z,2.63
2022-12-01T09:24:36.993Z,1.70
2022-12-01T09:27:08.502Z,2.15
2022-12-01T09:29:39.338Z,2.42
2022-12-01T09:32:10.109Z,2.10
2022-12-01T09:34:41.243Z,1.95
2022-12-01T09:37:12.259Z,2.75
2022-12-01T09:39:43.889Z,2.30
2022-12-01T09:42:17.160Z,2.50
2022-12-01T09:44:54.793Z,2.95
2022-12-01T09:47:33.539Z,2.22
2022-12-01T09:50:13.157Z,2.50
2022-12-01T09:53:08.142Z,2.20
2022-12-01T09:55:39.042Z,2.40
2022-12-01T09:58:21.012Z,2.30
2022-12-01T10:00:52.791Z,2.40
2022-12-01T10:03:30.503Z,2.67
2022-12-01T10:06:29.085Z,2.85
2022-12-01T10:09:13.716Z,2.28
2022-12-01T10:11:46.308Z,2.15
2022-12-01T10:14:20.410Z,3.28
2022-12-01T10:16:58.522Z,3.05
2022-12-01T10:20:09.175Z,2.72
2022-12-01T10:22:58.264Z,2.42
2022-12-01T10:25:33.225Z,2.33
2022-12-01T10:28:07.447Z,2.63
2022-12-01T10:30:50.370Z,2.50
2022-12-01T10:33:28.489Z,2.47
2022-12-01T10:35:59.722Z,2.40
2022-12-01T10:38:33.243Z,2.20
2022-12-01T10:41:06.523Z,2.20
2022-12-01T10:43:43.610Z,2.63
2022-12-01T10:46:27.131Z,2.40
2022-12-01T10:49:02.944Z,2.00
2022-12-01T10:51:33.724Z,2.40
2022-12-01T10:54:13.152Z,2.30
2022-12-01T10:56:46.963Z,2.47
2022-12-01T10:59:35.670Z,2.53
2022-12-01T11:02:08.518Z,2.40
2022-12-01T11:05:04.736Z,2.20
2022-12-01T11:07:37.053Z,2.22
2022-12-01T11:10:16.630Z,3.00
2022-12-01T11:13:09.016Z,1.70
2022-12-01T11:15:51.666Z,2.00
2022-12-01T11:18:32.003Z,2.10
2022-12-01T11:21:17.401Z,2.40
2022-12-01T11:23:50.777Z,2.10
2022-12-01T11:26:31.584Z,2.10
2022-12-01T11:29:23.059Z,2.08
2022-12-01T11:31:56.971Z,1.95
2022-12-01T11:34:30.683Z,2.20
2022-12-01T11:37:17.040Z,1.83
2022-12-01T11:39:49.719Z,1.88
2022-12-01T11:42:32.395Z,2.22
2022-12-01T11:45:24.166Z,2.03
2022-12-01T11:48:08.304Z,1.85
2022-12-01T11:50:41.685Z,2.03
2022-12-01T11:53:35.293Z,2.00
2022-12-01T11:56:24.961Z,1.90
2022-12-01T11:59:05.770Z,1.80
2022-12-01T12:02:05.380Z,2.23
2022-12-01T12:04:36.269Z,2.35
2022-12-01T12:07:23.197Z,1.95
2022-12-01T12:10:08.700Z,1.80
2022-12-01T12:12:50.929Z,2.05
2022-12-01T12:16:00.322Z,2.50
2022-12-01T12:18:34.050Z,2.60
2022-12-01T12:21:18.877Z,2.58
2022-12-01T12:24:08.249Z,1.75
2022-12-01T12:29:19.781Z,2.10
2022-12-01T12:32:18.240Z,2.22
2022-12-01T12:35:15.312Z,2.10
2022-12-01T12:38:00.629Z,2.00
2022-12-01T12:40:49.523Z,2.50
2022-12-01T12:44:07.895Z,1.85
2022-12-01T12:47:00.286Z,2.30
2022-12-01T12:49:48.016Z,2.58
2022-12-01T12:52:21.031Z,2.50
2022-12-01T12:54:59.491Z,2.65
2022-12-01T12:57:35.084Z,2.88
2022-12-01T13:00:06.573Z,2.65
2022-12-01T13:02:41.244Z,1.77
2022-12-01T13:05:17.550Z,2.50
2022-12-01T13:07:57.926Z,2.22
2022-12-01T13:10:51.916Z,2.60
2022-12-01T13:13:36.162Z,2.45
2022-12-01T13:16:12.277Z,2.20
2022-12-01T13:19:04.571Z,2.28
2022-12-01T13:21:41.959Z,2.35
2022-12-01T13:24:23.365Z,2.47
2022-12-01T13:26:59.810Z,1.98
2022-12-01T13:29:47.503Z,2.30
2022-12-01T13:32:38.345Z,2.15
2022-12-01T13:35:35.876Z,2.20
2022-12-01T13:38:23.346Z,2.30
2022-12-01T13:41:15.737Z,2.30
2022-12-01T13:44:03.116Z,2.20
2022-12-01T13:46:46.078Z,2.40
2022-12-01T13:49:43.652Z,2.10
2022-12-01T13:52:23.804Z,2.28
2022-12-01T13:55:09.982Z,2.17
2022-12-01T13:57:51.513Z,2.22
2022-12-01T14:00:29.388Z,2.47
2022-12-01T14:03:18.996Z,2.20
2022-12-01T14:05:58.604Z,2.22
2022-12-01T14:08:36.571Z,2.20
2022-12-01T14:11:24.271Z,2.58
2022-12-01T14:14:05.852Z,2.20
2022-12-01T14:17:00.074Z,2.13
2022-12-01T14:19:30.868Z,2.00
2022-12-01T14:22:03.553Z,2.38
2022-12-01T14:24:40.303Z,2.10
2022-12-01T14:27:13.306Z,2.10
2022-12-01T14:29:44.722Z,1.80
2022-12-01T14:32:18.365Z,1.77
2022-12-01T14:34:53.433Z,2.20
2022-12-01T14:37:28.329Z,2.50
2022-12-01T14:40:21.062Z,1.90
2022-12-01T14:43:13.649Z,1.85
2022-12-01T14:45:57.069Z,2.33
2022-12-01T14:48:35.198Z,2.05
2022-12-01T14:51:21.901Z,2.17
2022-12-01T14:53:54.710Z,1.90
2022-12-01T14:56:26.978Z,2.58
2022-12-01T14:59:02.848Z,2.03
2022-12-01T15:01:37.640Z,2.03
2022-12-01T15:04:08.973Z,1.88
2022-12-01T15:06:40.366Z,2.58
2022-12-01T15:09:34.912Z,2.83
2022-12-01T15:12:10.724Z,2.47
2022-12-01T15:14:52.737Z,1.88
2022-12-01T15:20:05.698Z,2.10
2022-12-01T15:22:36.929Z,2.47
2022-12-01T15:25:16.554Z,1.80
2022-12-01T15:27:47.610Z,2.30
2022-12-01T15:30:20.535Z,2.10
2022-12-01T15:32:51.536Z,2.00
2022-12-01T15:35:24.501Z,1.92
2022-12-01T15:37:56.106Z,2.20
2022-12-01T15:41:13.251Z,1.92
2022-12-01T15:43:24.904Z,2.05
2022-12-01T15:46:02.649Z,1.95
2022-12-01T15:48:37.019Z,2.10
2022-12-01T15:51:16.356Z,2.03
2022-12-01T15:53:55.560Z,2.17
2022-12-01T15:56:34.065Z,2.17
2022-12-01T15:59:27.409Z,2.00
2022-12-01T16:01:58.666Z,2.17
2022-12-01T16:04:33.581Z,2.50
2022-12-01T16:07:07.925Z,2.38
2022-12-01T16:09:41.034Z,2.22
2022-12-01T16:12:14.731Z,2.13
2022-12-01T16:14:58.892Z,1.80
2022-12-01T16:17:43.063Z,2.20
2022-12-01T16:20:19.454Z,1.90
2022-12-01T16:22:53.529Z,2.30
2022-12-01T16:25:37.656Z,2.00
2022-12-01T16:28:09.787Z,2.00
2022-12-01T16:30:42.005Z,2.20
2022-12-01T16:33:19.534Z,2.00
2022-12-01T16:35:50.902Z,2.13
2022-12-01T16:38:26.779Z,2.55
2022-12-01T16:41:00.483Z,1.83
2022-12-01T16:43:31.935Z,2.08
2022-12-01T16:46:04.983Z,2.22
2022-12-01T16:48:36.475Z,2.10
2022-12-01T16:51:09.400Z,1.73
2022-12-01T16:53:41.044Z,1.73
2022-12-01T16:56:15.229Z,2.00
2022-12-01T16:58:46.614Z,2.17
2022-12-01T17:01:17.595Z,1.92
2022-12-01T17:03:51.631Z,2.10
2022-12-01T17:06:22.932Z,1.90
2022-12-01T17:08:53.902Z,1.80
2022-12-01T17:11:24.863Z,2.05
2022-12-01T17:13:55.628Z,2.07
2022-12-01T17:16:26.628Z,2.10
2022-12-01T17:18:57.638Z,2.00
2022-12-01T17:21:28.992Z,1.97
2022-12-01T17:23:59.956Z,1.90
2022-12-01T17:26:31.115Z,2.00
2022-12-01T17:29:01.981Z,1.38
2022-12-01T17:31:33.156Z,1.92
2022-12-01T17:34:03.981Z,1.70
2022-12-01T17:36:34.919Z,2.00
2022-12-01T17:39:06.181Z,1.60
2022-12-01T17:41:37.609Z,1.88
2022-12-01T17:44:08.531Z,2.25
2022-12-01T17:46:40.081Z,1.63
2022-12-01T17:49:12.135Z,2.05
2022-12-01T17:51:43.745Z,1.88
2022-12-01T17:56:45.462Z,1.70
2022-12-01T17:59:17.014Z,2.08
2022-12-01T18:01:48.502Z,1.80
2022-12-01T18:04:19.289Z,1.75
2022-12-01T18:06:53.973Z,1.80
2022-12-01T18:09:25.733Z,2.17
2022-12-01T18:11:58.036Z,2.22
2022-12-01T18:14:29.394Z,2.10
2022-12-01T18:17:00.355Z,1.98
2022-12-01T18:19:31.663Z,1.60
2022-12-01T18:22:02.711Z,2.20
2022-12-01T18:24:33.850Z,1.90
2022-12-01T18:27:04.542Z,1.83
2022-12-01T18:29:35.598Z,1.77
2022-12-01T18:32:06.678Z,2.20
2022-12-01T18:34:37.646Z,1.77
2022-12-01T18:37:08.512Z,2.00
2022-12-01T18:39:39.821Z,1.90
2022-12-01T18:42:10.745Z,1.85
2022-12-01T18:44:43.868Z,1.50
2022-12-01T18:47:15.607Z,1.60
2022-12-01T18:49:46.374Z,1.58
2022-12-01T18:52:17.447Z,1.85
2022-12-01T18:54:48.434Z,1.85
2022-12-01T18:57:20.563Z,1.80
2022-12-01T19:02:23.227Z,1.90
2022-12-01T19:04:54.280Z,1.80
2022-12-01T19:07:29.811Z,1.80
2022-12-01T19:10:01.548Z,2.13
2022-12-01T19:12:37.805Z,1.60
2022-12-01T19:15:12.313Z,1.88
2022-12-01T19:17:43.567Z,1.88
2022-12-01T19:20:14.963Z,1.60
2022-12-01T19:22:46.203Z,1.50
2022-12-01T19:25:17.215Z,1.67
2022-12-01T19:27:48.376Z,1.90
2022-12-01T19:30:19.373Z,1.67
2022-12-01T19:32:50.891Z,1.40
2022-12-01T19:35:21.771Z,1.73
2022-12-01T19:37:53.812Z,1.40
2022-12-01T19:40:24.734Z,1.42
2022-12-01T19:42:56.399Z,1.50
2022-12-01T19:45:29.250Z,1.48
2022-12-01T19:48:00.978Z,1.60
2022-12-01T19:50:31.907Z,1.42
2022-12-01T19:53:02.710Z,1.57
2022-12-01T19:55:33.676Z,1.33
2022-12-01T19:58:05.745Z,1.50
2022-12-01T20:00:36.730Z,1.30
2022-12-01T20:03:07.972Z,1.70
2022-12-01T20:05:38.878Z,1.50
2022-12-01T20:08:09.869Z,1.20
2022-12-01T20:10:47.288Z,1.45
2022-12-01T20:13:18.024Z,1.88
2022-12-01T20:15:49.233Z,1.55
2022-12-01T20:18:20.131Z,1.63
2022-12-01T20:20:51.364Z,1.38
2022-12-01T20:23:22.275Z,1.42
2022-12-01T20:25:53.579Z,1.60
2022-12-01T20:28:24.515Z,1.70
2022-12-01T20:30:55.746Z,1.42
2022-12-01T20:33:27.802Z,1.77
2022-12-01T20:35:58.792Z,1.20
2022-12-01T20:38:29.759Z,1.38
2022-12-01T20:41:01.408Z,1.20
2022-12-01T20:43:32.651Z,1.92
2022-12-01T20:46:04.140Z,1.40
2022-12-01T20:51:07.612Z,1.30
2022-12-01T20:53:38.781Z,1.58
2022-12-01T20:56:12.726Z,1.60
2022-12-01T20:58:44.142Z,1.38
2022-12-01T21:01:17.543Z,1.52
2022-12-01T21:03:48.861Z,1.30
2022-12-01T21:06:20.243Z,1.98
2022-12-01T21:08:52.142Z,1.30
2022-12-01T21:11:49.818Z,1.42
2022-12-01T21:14:44.663Z,1.50
2022-12-01T21:17:35.889Z,1.98
2022-12-01T21:20:22.794Z,2.10
2022-12-01T21:22:55.104Z,1.40
2022-12-01T21:25:27.185Z,1.30
2022-12-01T21:28:02.692Z,1.20
2022-12-01T21:30:34.281Z,1.20
2022-12-01T21:33:35.436Z,1.10
2022-12-01T21:36:19.140Z,1.33
2022-12-01T21:38:52.756Z,1.33
2022-12-01T21:41:31.699Z,1.38
2022-12-01T21:44:07.747Z,1.50
2022-12-01T21:46:41.219Z,1.50
2022-12-01T21:49:20.160Z,1.13
2022-12-01T21:51:53.447Z,1.10
2022-12-01T21:54:25.289Z,1.10
2022-12-01T21:57:01.046Z,1.30
2022-12-01T21:59:32.437Z,1.40
2022-12-01T22:02:45.641Z,1.27
2022-12-01T22:06:01.016Z,1.00
2022-12-01T22:08:43.183Z,1.35
2022-12-01T22:11:27.262Z,1.10
2022-12-01T22:14:22.003Z,1.10
2022-12-01T22:16:58.370Z,1.27
2022-12-01T22:19:33.423Z,0.98
2022-12-01T22:22:05.495Z,1.10
2022-12-01T22:24:43.118Z,1.23
2022-12-01T22:27:32.492Z,1.00
2022-12-01T22:30:24.099Z,1.10
2022-12-01T22:32:58.621Z,1.27
2022-12-01T22:35:41.093Z,0.85
2022-12-01T22:38:12.086Z,0.98
2022-12-01T22:40:45.777Z,1.07
2022-12-01T22:43:19.362Z,1.15
2022-12-01T22:46:03.934Z,1.23
2022-12-01T22:48:53.144Z,1.17
2022-12-01T22:51:28.955Z,1.30
2022-12-01T22:54:24.086Z,1.55
2022-12-01T22:57:10.160Z,1.40
2022-12-01T22:59:44.115Z,1.35
2022-12-01T23:02:35.519Z,1.60
2022-12-01T23:05:25.985Z,1.33
2022-12-01T23:07:58.194Z,1.52
2022-12-01T23:10:32.791Z,1.02
2022-12-01T23:13:14.850Z,1.40
2022-12-01T23:15:54.871Z,1.20
2022-12-01T23:18:35.435Z,1.42
2022-12-01T23:21:06.492Z,1.10
2022-12-01T23:23:39.132Z,1.25
2022-12-01T23:26:10.785Z,1.13
2022-12-01T23:28:42.889Z,1.40
2022-12-01T23:31:14.008Z,1.30
2022-12-01T23:33:44.978Z,1.33
2022-12-01T23:36:24.071Z,1.60
2022-12-01T23:38:58.367Z,1.70
2022-12-01T23:41:35.389Z,1.60
2022-12-01T23:44:14.544Z,1.45
2022-12-01T23:46:45.513Z,1.58
2022-12-01T23:49:22.589Z,1.55
2022-12-01T23:51:56.051Z,1.80
2022-12-01T23:54:29.974Z,1.38
2022-12-01T23:57:04.393Z,1.42
2022-12-01T23:59:35.326Z,1.60
